createdAt,value
2023-04-20T00:01:44.408Z,100.00
2023-04-20T00:04:32.229Z,100.00
2023-04-20T00:11:13.657Z,100.00
2023-04-20T00:14:01.808Z,100.00
2023-04-20T00:16:49.702Z,100.00
2023-04-20T00:19:39.622Z,100.00
2023-04-20T00:22:36.159Z,100.00
2023-04-20T00:25:23.854Z,100.00
2023-04-20T00:28:11.542Z,100.00
2023-04-20T00:31:01.465Z,100.00
2023-04-20T00:33:49.523Z,100.00
2023-04-20T00:36:37.192Z,100.00
2023-04-20T00:39:24.885Z,100.00
2023-04-20T00:42:12.558Z,100.00
2023-04-20T00:45:00.204Z,100.00
2023-04-20T00:47:49.174Z,100.00
2023-04-20T00:50:38.622Z,100.00
2023-04-20T00:53:27.803Z,100.00
2023-04-20T00:56:16.973Z,100.00
2023-04-20T00:59:04.912Z,100.00
2023-04-20T01:01:52.676Z,100.00
2023-04-20T01:04:40.800Z,100.00
2023-04-20T01:07:30.322Z,100.00
2023-04-20T01:10:17.977Z,100.00
2023-04-20T01:13:05.699Z,100.00
2023-04-20T01:15:54.535Z,100.00
2023-04-20T01:18:44.728Z,100.00
2023-04-20T01:21:32.695Z,100.00
2023-04-20T01:24:20.509Z,100.00
2023-04-20T01:27:08.160Z,100.00
2023-04-20T01:29:55.934Z,100.00
2023-04-20T01:32:44.648Z,100.00
2023-04-20T01:35:32.383Z,100.00
2023-04-20T01:38:23.589Z,100.00
2023-04-20T01:41:11.558Z,100.00
2023-04-20T01:43:59.190Z,100.00
2023-04-20T01:46:46.859Z,100.00
2023-04-20T01:49:36.793Z,100.00
2023-04-20T01:52:24.412Z,100.00
2023-04-20T01:55:12.106Z,100.00
2023-04-20T01:57:59.741Z,100.00
2023-04-20T02:00:47.645Z,100.00
2023-04-20T02:03:35.565Z,100.00
2023-04-20T02:06:23.394Z,100.00
2023-04-20T02:09:11.196Z,100.00
2023-04-20T02:11:58.842Z,100.00
2023-04-20T02:14:46.546Z,100.00
2023-04-20T02:17:37.035Z,100.00
2023-04-20T02:20:24.935Z,100.00
2023-04-20T02:23:13.106Z,100.00
2023-04-20T02:26:01.047Z,100.00
2023-04-20T02:28:48.762Z,100.00
2023-04-20T02:31:36.582Z,100.00
2023-04-20T02:34:25.056Z,100.00
2023-04-20T02:37:12.760Z,100.00
2023-04-20T02:40:02.881Z,100.00
2023-04-20T02:42:50.652Z,100.00
2023-04-20T02:45:38.548Z,100.00
2023-04-20T02:48:26.925Z,100.00
2023-04-20T02:51:15.398Z,100.00
2023-04-20T02:54:06.207Z,100.00
2023-04-20T02:56:54.001Z,100.00
2023-04-20T02:59:42.358Z,100.00
2023-04-20T03:02:37.898Z,100.00
2023-04-20T03:05:25.658Z,100.00
2023-04-20T03:08:13.669Z,100.00
2023-04-20T03:11:02.528Z,100.00
2023-04-20T03:13:50.285Z,100.00
2023-04-20T03:16:39.036Z,100.00
2023-04-20T03:19:28.020Z,100.00
2023-04-20T03:22:21.446Z,100.00
2023-04-20T03:25:13.654Z,100.00
2023-04-20T03:28:20.705Z,100.00
2023-04-20T03:31:08.647Z,100.00
2023-04-20T03:33:56.353Z,100.00
2023-04-20T03:36:44.160Z,100.00
2023-04-20T03:39:31.941Z,100.00
2023-04-20T03:42:19.768Z,100.00
2023-04-20T03:45:09.647Z,100.00
2023-04-20T03:47:57.437Z,100.00
2023-04-20T03:50:46.297Z,100.00
2023-04-20T03:53:34.249Z,100.00
2023-04-20T03:56:22.794Z,100.00
2023-04-20T03:59:12.483Z,100.00
2023-04-20T04:02:02.910Z,100.00
2023-04-20T04:04:50.860Z,100.00
2023-04-20T04:07:38.625Z,100.00
2023-04-20T04:10:27.073Z,100.00
2023-04-20T04:13:14.918Z,100.00
2023-04-20T04:16:02.912Z,100.00
2023-04-20T04:18:50.929Z,100.00
2023-04-20T04:21:39.938Z,100.00
2023-04-20T04:24:28.283Z,100.00
2023-04-20T04:27:30.027Z,100.00
2023-04-20T04:30:18.165Z,100.00
2023-04-20T04:33:06.062Z,100.00
2023-04-20T04:35:57.772Z,100.00
2023-04-20T04:38:46.360Z,100.00
2023-04-20T04:41:34.253Z,100.00
2023-04-20T04:44:40.546Z,100.00
2023-04-20T04:47:35.444Z,100.00
2023-04-20T04:50:23.706Z,100.00
2023-04-20T04:53:12.597Z,100.00
2023-04-20T04:56:00.329Z,100.00
2023-04-20T04:58:48.006Z,100.00
2023-04-20T05:01:35.874Z,100.00
2023-04-20T05:04:23.689Z,100.00
2023-04-20T05:07:11.429Z,100.00
2023-04-20T05:09:59.094Z,100.00
2023-04-20T05:12:47.122Z,100.00
2023-04-20T05:15:34.875Z,100.00
2023-04-20T05:18:22.551Z,100.00
2023-04-20T05:21:10.326Z,100.00
2023-04-20T05:23:58.084Z,100.00
2023-04-20T05:26:48.744Z,100.00
2023-04-20T05:29:36.428Z,100.00
2023-04-20T05:32:24.130Z,100.00
2023-04-20T05:35:11.874Z,100.00
2023-04-20T05:38:02.702Z,100.00
2023-04-20T05:40:51.217Z,100.00
2023-04-20T05:43:38.829Z,100.00
2023-04-20T05:46:26.625Z,100.00
2023-04-20T05:49:14.534Z,100.00
2023-04-20T05:52:02.410Z,100.00
2023-04-20T05:54:50.104Z,100.00
2023-04-20T05:57:43.083Z,100.00
2023-04-20T06:00:30.687Z,100.00
2023-04-20T06:03:18.789Z,100.00
2023-04-20T06:06:07.150Z,100.00
2023-04-20T06:08:55.332Z,100.00
2023-04-20T06:11:42.955Z,100.00
2023-04-20T06:14:30.658Z,100.00
2023-04-20T06:17:18.395Z,100.00
2023-04-20T06:20:07.998Z,100.00
2023-04-20T06:22:55.785Z,100.00
2023-04-20T06:25:44.274Z,100.00
2023-04-20T06:28:31.960Z,100.00
2023-04-20T06:31:20.400Z,100.00
2023-04-20T06:34:40.241Z,100.00
2023-04-20T06:37:30.094Z,100.00
2023-04-20T06:40:17.870Z,100.00
2023-04-20T06:43:05.530Z,100.00
2023-04-20T06:45:53.317Z,100.00
2023-04-20T06:48:40.974Z,100.00
2023-04-20T06:51:29.457Z,100.00
2023-04-20T06:54:17.068Z,100.00
2023-04-20T06:57:05.848Z,100.00
2023-04-20T06:59:53.516Z,100.00
2023-04-20T07:02:49.497Z,100.00
2023-04-20T07:05:37.369Z,100.00
2023-04-20T07:08:25.141Z,100.00
2023-04-20T07:11:12.773Z,100.00
2023-04-20T07:14:11.227Z,100.00
2023-04-20T07:16:58.833Z,100.00
2023-04-20T07:19:49.306Z,100.00
2023-04-20T07:22:38.366Z,100.00
2023-04-20T07:25:26.246Z,100.00
2023-04-20T07:28:14.150Z,100.00
2023-04-20T07:31:01.751Z,100.00
2023-04-20T07:33:49.377Z,100.00
2023-04-20T07:36:39.313Z,100.00
2023-04-20T07:39:30.619Z,100.00
2023-04-20T07:42:21.846Z,100.00
2023-04-20T07:45:11.455Z,100.00
2023-04-20T07:48:01.761Z,100.00
2023-04-20T07:50:50.765Z,100.00
2023-04-20T07:53:38.455Z,100.00
2023-04-20T07:56:26.294Z,100.00
2023-04-20T07:59:13.997Z,100.00
2023-04-20T08:02:02.693Z,100.00
2023-04-20T08:04:50.790Z,100.00
2023-04-20T08:07:44.088Z,100.00
2023-04-20T08:10:31.842Z,100.00
2023-04-20T08:13:19.528Z,100.00
2023-04-20T08:16:09.805Z,100.00
2023-04-20T08:18:57.442Z,100.00
2023-04-20T08:21:45.285Z,100.00
2023-04-20T08:24:35.614Z,100.00
2023-04-20T08:27:23.578Z,100.00
2023-04-20T08:30:17.070Z,100.00
2023-04-20T08:33:06.989Z,100.00
2023-04-20T08:35:54.775Z,100.00
2023-04-20T08:38:42.377Z,100.00
2023-04-20T08:41:33.683Z,100.00
2023-04-20T08:44:21.952Z,100.00
2023-04-20T08:47:11.933Z,100.00
2023-04-20T08:50:01.144Z,100.00
2023-04-20T08:52:48.797Z,100.00
2023-04-20T08:55:36.648Z,100.00
2023-04-20T08:58:34.673Z,100.00
2023-04-20T09:01:34.663Z,100.00
2023-04-20T09:04:27.150Z,100.00
2023-04-20T09:07:20.430Z,100.00
2023-04-20T09:10:15.476Z,100.00
2023-04-20T09:13:06.322Z,100.00
2023-04-20T09:15:53.979Z,100.00
2023-04-20T09:18:55.157Z,100.00
2023-04-20T09:21:51.098Z,100.00
2023-04-20T09:24:39.966Z,100.00
2023-04-20T09:27:29.001Z,100.00
2023-04-20T09:30:16.659Z,100.00
2023-04-20T09:33:08.706Z,100.00
2023-04-20T09:36:04.524Z,100.00
2023-04-20T09:39:06.607Z,100.00
2023-04-20T09:41:55.305Z,100.00
2023-04-20T09:44:46.317Z,100.00
2023-04-20T09:47:37.348Z,100.00
2023-04-20T09:50:34.975Z,100.00
2023-04-20T09:53:31.896Z,100.00
2023-04-20T09:56:22.931Z,100.00
2023-04-20T09:59:14.086Z,100.00
2023-04-20T10:02:01.926Z,100.00
2023-04-20T10:04:59.765Z,100.00
2023-04-20T10:07:47.513Z,100.00
2023-04-20T10:10:46.842Z,100.00
2023-04-20T10:13:42.720Z,100.00
2023-04-20T10:16:30.827Z,99.46
2023-04-20T10:19:21.456Z,95.78
2023-04-20T10:22:27.022Z,100.00
2023-04-20T10:25:21.086Z,100.00
2023-04-20T10:28:10.834Z,100.00
2023-04-20T10:30:58.766Z,92.52
2023-04-20T10:34:04.920Z,94.19
2023-04-20T10:36:52.871Z,93.01
2023-04-20T10:39:47.721Z,100.00
2023-04-20T10:42:46.973Z,94.82
2023-04-20T10:45:36.614Z,93.44
2023-04-20T10:48:24.433Z,92.72
2023-04-20T10:51:12.154Z,92.87
2023-04-20T10:54:03.950Z,93.67
2023-04-20T10:56:54.232Z,100.00
2023-04-20T10:59:42.429Z,96.28
2023-04-20T11:02:31.450Z,95.35
2023-04-20T11:05:21.975Z,94.58
2023-04-20T11:08:09.753Z,100.00
2023-04-20T11:10:59.908Z,88.12
2023-04-20T11:13:48.733Z,88.98
2023-04-20T11:16:49.584Z,84.88
2023-04-20T11:19:39.346Z,90.51
2023-04-20T11:22:27.037Z,83.91
2023-04-20T11:25:14.779Z,85.98
2023-04-20T11:28:08.255Z,94.58
2023-04-20T11:30:56.081Z,84.07
2023-04-20T11:33:44.862Z,83.11
2023-04-20T11:36:32.633Z,81.82
2023-04-20T11:39:27.604Z,81.96
2023-04-20T11:42:15.262Z,75.63
2023-04-20T11:45:06.876Z,81.35
2023-04-20T11:47:58.377Z,80.09
2023-04-20T11:50:47.145Z,78.90
2023-04-20T11:53:35.080Z,84.45
2023-04-20T11:56:23.112Z,81.79
2023-04-20T11:59:12.461Z,82.37
2023-04-20T12:02:04.461Z,83.09
2023-04-20T12:04:52.489Z,86.62
2023-04-20T12:07:40.364Z,84.08
2023-04-20T12:10:28.284Z,83.11
2023-04-20T12:13:16.367Z,87.14
2023-04-20T12:16:04.065Z,79.91
2023-04-20T12:18:52.124Z,78.04
2023-04-20T12:21:39.630Z,85.45
2023-04-20T12:24:29.723Z,79.58
2023-04-20T12:27:17.432Z,81.30
2023-04-20T12:30:05.863Z,77.53
2023-04-20T12:32:53.528Z,78.77
2023-04-20T12:35:43.842Z,80.74
2023-04-20T12:38:33.799Z,79.29
2023-04-20T12:41:23.081Z,78.77
2023-04-20T12:44:11.546Z,76.75
2023-04-20T12:46:59.576Z,73.98
2023-04-20T12:49:47.319Z,77.72
2023-04-20T12:52:37.282Z,72.58
2023-04-20T12:55:26.427Z,74.21
2023-04-20T12:58:16.343Z,75.29
2023-04-20T13:01:04.100Z,75.52
2023-04-20T13:03:55.086Z,72.56
2023-04-20T13:06:43.170Z,74.95
2023-04-20T13:09:31.044Z,75.64
2023-04-20T13:12:19.286Z,74.15
2023-04-20T13:15:11.373Z,68.98
2023-04-20T13:17:59.042Z,67.17
2023-04-20T13:20:46.756Z,70.97
2023-04-20T13:23:34.582Z,73.23
2023-04-20T13:26:22.926Z,69.19
2023-04-20T13:29:10.553Z,68.99
2023-04-20T13:31:58.430Z,70.51
2023-04-20T13:34:46.392Z,67.88
2023-04-20T13:37:37.953Z,69.52
2023-04-20T13:40:26.695Z,70.58
2023-04-20T13:43:14.691Z,72.02
2023-04-20T13:46:02.395Z,74.17
2023-04-20T13:48:50.192Z,73.59
2023-04-20T13:51:42.026Z,73.06
2023-04-20T13:54:29.571Z,73.87
2023-04-20T13:57:17.259Z,71.70
2023-04-20T14:00:05.755Z,70.20
2023-04-20T14:02:53.577Z,68.76
2023-04-20T14:05:42.150Z,71.37
2023-04-20T14:08:32.361Z,68.52
2023-04-20T14:11:20.075Z,66.72
2023-04-20T14:14:09.975Z,66.27
2023-04-20T14:16:57.738Z,71.40
2023-04-20T14:19:45.361Z,70.93
2023-04-20T14:22:36.207Z,68.92
2023-04-20T14:25:23.935Z,69.42
2023-04-20T14:28:11.704Z,67.65
2023-04-20T14:31:01.004Z,67.10
2023-04-20T14:33:48.819Z,66.97
2023-04-20T14:36:36.442Z,66.11
2023-04-20T14:39:24.240Z,66.88
2023-04-20T14:42:13.324Z,64.62
2023-04-20T14:45:01.073Z,63.66
2023-04-20T14:47:58.425Z,63.95
2023-04-20T14:50:46.182Z,66.84
2023-04-20T14:53:38.515Z,66.94
2023-04-20T14:56:26.416Z,71.50
2023-04-20T14:59:28.346Z,74.36
2023-04-20T15:02:16.431Z,73.28
2023-04-20T15:05:09.920Z,74.38
2023-04-20T15:08:00.641Z,74.00
2023-04-20T15:10:48.320Z,73.48
2023-04-20T15:13:36.143Z,72.50
2023-04-20T15:16:26.437Z,73.75
2023-04-20T15:19:14.406Z,72.32
2023-04-20T15:22:02.254Z,75.23
2023-04-20T15:24:55.065Z,73.63
2023-04-20T15:30:33.217Z,74.98
2023-04-20T15:33:24.994Z,74.36
2023-04-20T15:36:20.755Z,71.45
2023-04-20T15:39:11.303Z,75.41
2023-04-20T15:42:06.463Z,74.38
2023-04-20T15:44:54.376Z,76.00
2023-04-20T15:47:42.262Z,75.91
2023-04-20T15:50:35.545Z,75.53
2023-04-20T15:53:23.382Z,77.61
2023-04-20T15:56:11.068Z,77.98
2023-04-20T15:58:58.880Z,75.85
2023-04-20T16:01:49.700Z,79.51
2023-04-20T16:04:47.980Z,79.36
2023-04-20T16:07:35.954Z,79.45
2023-04-20T16:10:24.010Z,81.16
2023-04-20T16:13:15.031Z,82.27
2023-04-20T16:16:03.412Z,85.57
2023-04-20T16:18:58.366Z,83.90
2023-04-20T16:21:51.483Z,86.78
2023-04-20T16:24:42.553Z,87.67
2023-04-20T16:27:49.080Z,89.12
2023-04-20T16:30:44.779Z,90.15
2023-04-20T16:33:33.155Z,92.66
2023-04-20T16:36:21.024Z,94.68
2023-04-20T16:39:10.451Z,97.19
2023-04-20T16:42:00.572Z,100.00
2023-04-20T16:44:48.343Z,100.00
2023-04-20T16:47:36.258Z,100.00
2023-04-20T16:50:25.852Z,100.00
2023-04-20T16:53:13.467Z,100.00
2023-04-20T16:56:01.275Z,100.00
2023-04-20T16:58:48.895Z,100.00
2023-04-20T17:01:36.701Z,100.00
2023-04-20T17:04:24.444Z,100.00
2023-04-20T17:07:17.958Z,100.00
2023-04-20T17:10:06.304Z,100.00
2023-04-20T17:12:59.660Z,100.00
2023-04-20T17:15:57.562Z,100.00
2023-04-20T17:18:45.468Z,100.00
2023-04-20T17:21:40.642Z,100.00
2023-04-20T17:24:28.450Z,100.00
2023-04-20T17:27:16.331Z,100.00
2023-04-20T17:30:05.373Z,100.00
2023-04-20T17:32:53.584Z,100.00
2023-04-20T17:35:41.471Z,100.00
2023-04-20T17:38:29.092Z,100.00
2023-04-20T17:41:16.921Z,100.00
2023-04-20T17:44:04.637Z,100.00
2023-04-20T17:46:53.414Z,100.00
2023-04-20T17:49:44.787Z,100.00
2023-04-20T17:52:32.994Z,100.00
2023-04-20T17:55:23.022Z,100.00
2023-04-20T17:58:10.854Z,100.00
2023-04-20T18:00:58.510Z,100.00
2023-04-20T18:03:48.516Z,100.00
2023-04-20T18:06:36.293Z,100.00
2023-04-20T18:09:24.175Z,100.00
2023-04-20T18:12:11.908Z,100.00
2023-04-20T18:14:59.773Z,100.00
2023-04-20T18:17:47.494Z,100.00
2023-04-20T18:20:35.338Z,100.00
2023-04-20T18:23:22.955Z,100.00
2023-04-20T18:26:17.485Z,100.00
2023-04-20T18:29:05.508Z,100.00
2023-04-20T18:31:55.207Z,100.00
2023-04-20T18:34:42.781Z,100.00
2023-04-20T18:37:30.800Z,100.00
2023-04-20T18:40:18.885Z,100.00
2023-04-20T18:43:07.019Z,100.00
2023-04-20T18:45:54.655Z,100.00
2023-04-20T18:48:42.452Z,100.00
2023-04-20T18:51:30.129Z,100.00
2023-04-20T18:54:18.220Z,100.00
2023-04-20T18:57:07.348Z,100.00
2023-04-20T18:59:58.329Z,100.00
2023-04-20T19:02:46.152Z,100.00
2023-04-20T19:05:33.898Z,100.00
2023-04-20T19:08:22.577Z,100.00
2023-04-20T19:11:10.426Z,100.00
2023-04-20T19:13:58.144Z,100.00
2023-04-20T19:16:45.992Z,100.00
2023-04-20T19:19:33.867Z,100.00
2023-04-20T19:22:21.652Z,100.00
2023-04-20T19:25:09.719Z,100.00
2023-04-20T19:27:59.141Z,100.00
2023-04-20T19:30:47.136Z,100.00
2023-04-20T19:33:35.914Z,100.00
2023-04-20T19:36:23.568Z,100.00
2023-04-20T19:39:11.776Z,100.00
2023-04-20T19:41:59.411Z,100.00
2023-04-20T19:44:47.559Z,100.00
2023-04-20T19:47:36.075Z,100.00
2023-04-20T19:50:23.882Z,100.00
2023-04-20T19:53:11.406Z,100.00
2023-04-20T19:55:59.243Z,100.00
2023-04-20T19:58:47.322Z,100.00
2023-04-20T20:01:35.029Z,100.00
2023-04-20T20:04:22.874Z,100.00
2023-04-20T20:07:11.136Z,100.00
2023-04-20T20:09:58.896Z,100.00
2023-04-20T20:12:52.587Z,100.00
2023-04-20T20:15:40.382Z,100.00
2023-04-20T20:18:28.115Z,100.00
2023-04-20T20:21:16.159Z,100.00
2023-04-20T20:24:04.070Z,100.00
2023-04-20T20:26:54.405Z,100.00
2023-04-20T20:29:42.081Z,100.00
2023-04-20T20:32:29.757Z,100.00
2023-04-20T20:35:17.660Z,100.00
2023-04-20T20:38:06.918Z,100.00
2023-04-20T20:40:55.309Z,100.00
2023-04-20T20:43:43.005Z,100.00
2023-04-20T20:46:31.939Z,100.00
2023-04-20T20:49:19.860Z,100.00
2023-04-20T20:52:07.860Z,100.00
2023-04-20T20:54:55.618Z,100.00
2023-04-20T20:57:43.372Z,100.00
2023-04-20T21:00:31.121Z,100.00
2023-04-20T21:03:19.236Z,100.00
2023-04-20T21:06:07.280Z,100.00
2023-04-20T21:08:55.258Z,100.00
2023-04-20T21:11:56.636Z,100.00
2023-04-20T21:16:53.887Z,100.00
2023-04-20T21:18:05.838Z,100.00
2023-04-20T21:20:53.752Z,100.00
2023-04-20T21:23:41.380Z,100.00
2023-04-20T21:26:35.031Z,100.00
2023-04-20T21:29:22.645Z,100.00
2023-04-20T21:32:10.724Z,100.00
2023-04-20T21:34:58.400Z,100.00
2023-04-20T21:37:46.237Z,100.00
2023-04-20T21:40:34.414Z,100.00
2023-04-20T21:43:22.098Z,100.00
2023-04-20T21:46:14.578Z,100.00
2023-04-20T21:49:02.872Z,100.00
2023-04-20T21:51:50.526Z,100.00
2023-04-20T21:54:41.064Z,100.00
2023-04-20T21:57:28.702Z,100.00
2023-04-20T22:00:18.300Z,100.00
2023-04-20T22:03:06.195Z,100.00
2023-04-20T22:05:53.992Z,100.00
2023-04-20T22:08:42.149Z,100.00
2023-04-20T22:11:30.359Z,100.00
2023-04-20T22:14:18.133Z,100.00
2023-04-20T22:17:05.907Z,100.00
2023-04-20T22:19:53.479Z,100.00
2023-04-20T22:22:41.575Z,100.00
2023-04-20T22:25:29.115Z,100.00
2023-04-20T22:28:17.014Z,100.00
2023-04-20T22:31:04.841Z,100.00
2023-04-20T22:33:52.635Z,100.00
2023-04-20T22:36:41.348Z,100.00
2023-04-20T22:39:29.091Z,100.00
2023-04-20T22:42:16.694Z,100.00
2023-04-20T22:45:05.012Z,100.00
2023-04-20T22:47:52.805Z,100.00
2023-04-20T22:50:41.522Z,100.00
2023-04-20T22:53:31.802Z,100.00
2023-04-20T22:56:19.585Z,100.00
2023-04-20T22:59:07.271Z,100.00
2023-04-20T23:01:55.096Z,100.00
2023-04-20T23:04:44.507Z,100.00
2023-04-20T23:07:33.355Z,100.00
2023-04-20T23:10:21.207Z,100.00
2023-04-20T23:13:08.943Z,100.00
2023-04-20T23:15:56.624Z,100.00
2023-04-20T23:18:44.410Z,100.00
2023-04-20T23:21:33.054Z,100.00
2023-04-20T23:24:20.826Z,100.00
2023-04-20T23:27:08.354Z,100.00
2023-04-20T23:29:56.339Z,100.00
2023-04-20T23:32:44.554Z,100.00
2023-04-20T23:35:32.543Z,100.00
2023-04-20T23:38:22.471Z,100.00
2023-04-20T23:41:11.731Z,100.00
2023-04-20T23:43:59.321Z,100.00
2023-04-20T23:46:47.096Z,100.00
2023-04-20T23:49:34.783Z,100.00
2023-04-20T23:52:22.866Z,100.00
2023-04-20T23:55:10.847Z,100.00
2023-04-20T23:57:58.694Z,100.00
